Time;durP1;ratioP1;P1;durP2;ratioP2;P2;SDS_P1;SDS_P2;PMS_P1;PMS_P2;Temp;Humidity;BMP_temperature;BMP_pressure;BME280_temperature;BME280_humidity;BME280_pressure;Samples;Min_cycle;Max_cycle;Signal;HPM_P1;HPM_P2
2020/12/12 00:01:30;;;;;;;83.57;35.63;;;1.60;99.90;;;;;;5014379;28;20235;-74
2020/12/12 00:03:55;;;;;;;80.53;35.93;;;1.60;99.90;;;;;;5014142;28;20180;-74
2020/12/12 00:06:22;;;;;;;85.30;34.87;;;1.60;99.90;;;;;;5014009;28;20211;-74
2020/12/12 00:08:48;;;;;;;78.33;36.43;;;1.60;99.90;;;;;;5013896;28;20212;-74
2020/12/12 00:11:14;;;;;;;87.03;36.63;;;1.60;99.90;;;;;;5014139;28;20435;-74
2020/12/12 00:13:39;;;;;;;80.23;34.13;;;1.60;99.90;;;;;;5013978;28;20419;-74
2020/12/12 00:16:06;;;;;;;82.23;34.77;;;1.60;99.90;;;;;;5013962;28;20180;-74
2020/12/12 00:18:34;;;;;;;70.23;33.37;;;1.60;99.90;;;;;;5013604;28;20212;-74
2020/12/12 00:21:00;;;;;;;79.07;36.17;;;1.60;99.90;;;;;;5013771;28;20403;-74
2020/12/12 00:23:25;;;;;;;80.30;35.83;;;1.60;99.90;;;;;;5013834;28;20461;-74
2020/12/12 00:25:51;;;;;;;77.00;32.67;;;1.50;99.90;;;;;;5013748;28;20259;-74
2020/12/12 00:28:17;;;;;;;83.13;36.90;;;1.50;99.90;;;;;;5013572;28;20184;-72
2020/12/12 00:30:43;;;;;;;69.40;34.03;;;1.50;99.90;;;;;;5013474;28;20403;-74
2020/12/12 00:33:08;;;;;;;89.03;35.53;;;1.50;99.90;;;;;;5013604;28;20172;-73
2020/12/12 00:35:34;;;;;;;80.17;35.87;;;1.50;99.90;;;;;;5013574;28;20539;-74
2020/12/12 00:37:59;;;;;;;84.80;38.73;;;1.50;99.90;;;;;;5013181;28;20172;-73
2020/12/12 00:40:25;;;;;;;79.63;37.20;;;1.50;99.90;;;;;;5013468;28;20172;-74
2020/12/12 00:42:50;;;;;;;76.60;37.33;;;1.50;99.90;;;;;;5013486;28;20193;-74
2020/12/12 00:45:15;;;;;;;82.17;35.87;;;1.50;99.90;;;;;;5013595;28;20629;-73
2020/12/12 00:47:41;;;;;;;76.00;33.60;;;1.50;99.90;;;;;;5013310;28;20194;-74
2020/12/12 00:50:06;;;;;;;70.17;33.90;;;1.40;99.90;;;;;;5013215;28;20254;-74
2020/12/12 00:52:32;;;;;;;75.67;37.30;;;1.40;99.90;;;;;;5013407;28;20184;-74
2020/12/12 00:54:57;;;;;;;77.23;35.40;;;1.40;99.90;;;;;;5011996;28;20226;-74
2020/12/12 00:57:23;;;;;;;72.43;35.63;;;1.40;99.90;;;;;;5013133;28;20173;-74
2020/12/12 00:59:48;;;;;;;83.73;37.20;;;1.40;99.90;;;;;;5013029;28;20208;-73
2020/12/12 01:02:13;;;;;;;81.90;36.07;;;1.40;99.90;;;;;;5013090;28;20157;-74
2020/12/12 01:04:39;;;;;;;78.30;35.63;;;1.30;99.90;;;;;;5013087;28;20179;-74
2020/12/12 01:07:05;;;;;;;70.47;37.10;;;1.30;99.90;;;;;;5012979;28;20164;-74
2020/12/12 01:09:31;;;;;;;76.30;36.67;;;1.30;99.90;;;;;;5012853;28;20230;-73
2020/12/12 01:11:56;;;;;;;84.30;38.97;;;1.30;99.90;;;;;;5012907;28;20176;-73
2020/12/12 01:14:22;;;;;;;73.47;36.90;;;1.30;99.90;;;;;;5012931;28;20911;-74
2020/12/12 01:16:48;;;;;;;72.47;35.10;;;1.30;99.90;;;;;;5012755;28;20173;-74
2020/12/12 01:19:13;;;;;;;94.63;37.77;;;1.20;99.90;;;;;;5012630;28;20459;-74
2020/12/12 01:21:38;;;;;;;80.90;37.63;;;1.20;99.90;;;;;;5012883;28;20222;-73
2020/12/12 01:24:05;;;;;;;70.83;34.67;;;1.20;99.90;;;;;;5013056;28;20164;-75
2020/12/12 01:26:31;;;;;;;71.90;35.47;;;1.20;99.90;;;;;;5012914;28;20512;-74
2020/12/12 01:28:56;;;;;;;82.07;34.17;;;1.20;99.90;;;;;;5013065;28;21027;-74
2020/12/12 01:31:22;;;;;;;79.70;37.73;;;1.20;99.90;;;;;;5013107;28;20439;-74
2020/12/12 01:33:48;;;;;;;87.33;38.87;;;1.20;99.90;;;;;;5012527;28;20259;-74
2020/12/12 01:36:14;;;;;;;78.50;36.47;;;1.20;99.90;;;;;;5012494;28;20172;-73
2020/12/12 01:38:39;;;;;;;87.17;40.17;;;1.20;99.90;;;;;;5012445;28;20482;-74
2020/12/12 01:41:05;;;;;;;86.80;38.87;;;1.20;99.90;;;;;;5012021;28;20172;-74
2020/12/12 01:43:30;;;;;;;82.53;37.63;;;1.20;99.90;;;;;;5012538;28;20200;-74
2020/12/12 01:45:56;;;;;;;83.63;37.20;;;1.20;99.90;;;;;;5012363;28;20172;-74
2020/12/12 01:48:22;;;;;;;80.27;36.53;;;1.20;99.90;;;;;;5012701;28;20482;-74
2020/12/12 01:50:49;;;;;;;68.70;37.10;;;1.20;99.90;;;;;;5012406;28;20502;-74
2020/12/12 01:53:17;;;;;;;79.60;38.90;;;1.20;99.90;;;;;;5012428;28;20172;-74
2020/12/12 01:55:47;;;;;;;84.00;37.60;;;1.20;99.90;;;;;;5012409;28;20411;-74
2020/12/12 01:58:13;;;;;;;84.10;36.67;;;1.20;99.90;;;;;;5012151;28;20415;-74
2020/12/12 02:00:39;;;;;;;81.97;36.30;;;1.20;99.90;;;;;;5012109;28;20404;-74
2020/12/12 02:03:06;;;;;;;82.17;35.53;;;1.20;99.90;;;;;;5012139;28;20431;-74
2020/12/12 02:05:39;;;;;;;76.73;35.57;;;1.20;99.90;;;;;;5011727;28;20267;-73
2020/12/12 02:08:22;;;;;;;85.37;38.00;;;1.20;99.90;;;;;;5011790;28;20431;-73
2020/12/12 02:10:49;;;;;;;80.47;36.03;;;1.20;99.90;;;;;;5012184;28;20834;-74
2020/12/12 02:13:17;;;;;;;87.83;38.67;;;1.10;99.90;;;;;;5012392;28;20407;-75
2020/12/12 02:15:43;;;;;;;75.43;38.20;;;1.20;99.90;;;;;;5012300;28;20408;-74
2020/12/12 02:18:18;;;;;;;82.03;36.60;;;1.20;99.90;;;;;;5011800;28;20502;-73
2020/12/12 02:20:56;;;;;;;67.33;35.87;;;1.20;99.90;;;;;;5012082;28;20790;-73
2020/12/12 02:23:22;;;;;;;75.30;34.60;;;1.20;99.90;;;;;;5010844;28;20415;-74
2020/12/12 02:25:48;;;;;;;74.80;34.03;;;1.20;99.90;;;;;;5012020;28;20457;-74
2020/12/12 02:28:17;;;;;;;91.30;34.07;;;1.20;99.90;;;;;;5011856;28;20172;-74
2020/12/12 02:30:43;;;;;;;72.97;35.30;;;1.20;99.90;;;;;;5011991;28;20739;-74
2020/12/12 02:33:09;;;;;;;83.53;37.67;;;1.10;99.90;;;;;;5011766;28;20403;-73
2020/12/12 02:35:34;;;;;;;62.50;32.07;;;1.10;99.90;;;;;;5011964;28;20719;-73
2020/12/12 02:38:00;;;;;;;78.77;36.77;;;1.10;99.90;;;;;;5011780;28;20199;-74
2020/12/12 02:40:26;;;;;;;81.57;36.90;;;1.10;99.90;;;;;;5011908;28;20553;-74
2020/12/12 02:42:51;;;;;;;71.20;33.67;;;1.20;99.90;;;;;;5011953;28;20169;-74
2020/12/12 02:45:18;;;;;;;68.00;34.60;;;1.20;99.90;;;;;;5012189;28;20688;-74
2020/12/12 02:47:45;;;;;;;71.87;31.23;;;1.20;99.90;;;;;;5011800;28;20168;-74
2020/12/12 02:50:12;;;;;;;75.97;32.33;;;1.20;99.90;;;;;;5012078;28;21251;-74
2020/12/12 02:52:39;;;;;;;76.67;32.63;;;1.20;99.90;;;;;;5011810;28;20399;-74
2020/12/12 02:55:06;;;;;;;65.67;33.90;;;1.20;99.90;;;;;;5015122;28;20407;-73
2020/12/12 02:57:36;;;;;;;71.03;35.60;;;1.20;99.90;;;;;;5015411;28;20411;-74
2020/12/12 03:00:07;;;;;;;74.93;34.30;;;1.20;99.90;;;;;;5015262;28;20529;-74
2020/12/12 03:02:32;;;;;;;64.77;34.10;;;1.20;99.90;;;;;;5015452;28;20403;-74
2020/12/12 03:04:58;;;;;;;70.17;33.77;;;1.20;99.90;;;;;;5015332;28;20826;-74
2020/12/12 03:07:23;;;;;;;75.03;35.27;;;1.20;99.90;;;;;;5015527;28;20179;-74
2020/12/12 03:09:50;;;;;;;73.80;33.60;;;1.10;99.90;;;;;;5015212;28;20211;-74
2020/12/12 03:12:15;;;;;;;67.03;32.17;;;1.20;99.90;;;;;;5015315;28;20180;-74
2020/12/12 03:14:40;;;;;;;66.87;34.77;;;1.20;99.90;;;;;;5015207;28;20418;-73
2020/12/12 03:17:09;;;;;;;71.87;35.07;;;1.10;99.90;;;;;;5015181;28;20177;-74
2020/12/12 03:19:36;;;;;;;69.13;34.33;;;1.10;99.90;;;;;;5015104;28;20575;-74
2020/12/12 03:22:02;;;;;;;61.23;32.97;;;1.10;99.90;;;;;;5015134;28;20410;-74
2020/12/12 03:24:27;;;;;;;74.57;32.70;;;1.10;99.90;;;;;;5015176;28;20399;-74
2020/12/12 03:26:53;;;;;;;69.73;33.13;;;1.10;99.90;;;;;;5014890;28;20649;-74
2020/12/12 03:29:18;;;;;;;69.20;33.03;;;1.20;99.90;;;;;;5015036;28;20668;-74
2020/12/12 03:31:43;;;;;;;66.37;33.83;;;1.20;99.90;;;;;;5014818;28;20263;-75
2020/12/12 03:34:09;;;;;;;62.73;30.93;;;1.10;99.90;;;;;;5014849;28;20185;-74
2020/12/12 03:36:34;;;;;;;70.97;33.93;;;1.20;99.90;;;;;;5014706;28;20178;-74
2020/12/12 03:39:00;;;;;;;65.90;34.00;;;1.10;99.90;;;;;;5014600;28;20223;-74
2020/12/12 03:41:25;;;;;;;64.43;30.27;;;1.10;99.90;;;;;;5014769;28;20641;-74
2020/12/12 03:43:51;;;;;;;67.50;35.20;;;1.20;99.90;;;;;;5014609;28;20239;-73
2020/12/12 03:46:16;;;;;;;67.13;34.50;;;1.10;99.90;;;;;;5014394;28;20179;-73
2020/12/12 03:48:42;;;;;;;68.43;34.90;;;1.10;99.90;;;;;;5014433;28;20672;-74
2020/12/12 03:51:08;;;;;;;66.07;34.50;;;1.10;99.90;;;;;;5014711;28;20180;-74
2020/12/12 03:53:34;;;;;;;68.13;33.93;;;1.10;99.90;;;;;;5014498;28;20176;-74
2020/12/12 03:55:59;;;;;;;59.87;32.13;;;1.10;99.90;;;;;;5014401;28;20411;-74
2020/12/12 03:58:25;;;;;;;62.87;33.00;;;1.10;99.90;;;;;;5014176;28;20192;-74
2020/12/12 04:00:50;;;;;;;67.57;33.03;;;1.10;99.90;;;;;;5014441;28;20192;-74
2020/12/12 04:03:16;;;;;;;57.23;31.87;;;1.10;99.90;;;;;;5014384;28;20222;-74
2020/12/12 04:05:44;;;;;;;57.33;30.73;;;1.10;99.90;;;;;;5013993;28;20206;-74
2020/12/12 04:08:12;;;;;;;59.87;32.60;;;1.00;99.90;;;;;;5014218;28;20180;-74
2020/12/12 04:10:37;;;;;;;63.10;31.90;;;1.10;99.90;;;;;;5014369;28;20414;-74
2020/12/12 04:13:03;;;;;;;73.20;33.60;;;1.10;99.90;;;;;;5014411;28;20399;-74
2020/12/12 04:15:29;;;;;;;56.10;29.90;;;1.10;99.90;;;;;;5014108;28;20177;-74
2020/12/12 04:17:55;;;;;;;58.80;33.53;;;1.10;99.90;;;;;;5013999;28;20164;-74
2020/12/12 04:20:20;;;;;;;70.83;34.07;;;1.10;99.90;;;;;;5013774;28;20486;-73
2020/12/12 04:22:46;;;;;;;59.93;32.70;;;1.10;99.90;;;;;;5013841;28;20523;-74
2020/12/12 04:25:11;;;;;;;60.10;30.97;;;1.10;99.90;;;;;;5013809;28;20203;-74
2020/12/12 04:27:37;;;;;;;64.73;32.77;;;1.10;99.90;;;;;;5013619;28;20169;-73
2020/12/12 04:30:04;;;;;;;57.00;31.33;;;1.10;99.90;;;;;;5013671;28;20731;-74
2020/12/12 04:32:29;;;;;;;55.50;28.60;;;1.10;99.90;;;;;;5013781;28;20169;-74
2020/12/12 04:34:55;;;;;;;64.03;37.57;;;1.10;99.90;;;;;;5013989;28;20884;-74
2020/12/12 04:37:20;;;;;;;59.83;31.80;;;1.10;99.90;;;;;;5013556;28;20173;-75
2020/12/12 04:39:46;;;;;;;55.30;32.80;;;1.10;99.90;;;;;;5013489;28;20240;-73
2020/12/12 04:42:14;;;;;;;62.07;33.80;;;1.10;99.90;;;;;;5013484;28;20601;-74
2020/12/12 04:44:41;;;;;;;54.40;31.07;;;1.10;99.90;;;;;;5013506;28;20576;-74
2020/12/12 04:47:07;;;;;;;59.57;30.57;;;1.10;99.90;;;;;;5013299;28;20414;-74
2020/12/12 04:49:34;;;;;;;55.33;32.93;;;1.10;99.90;;;;;;5013563;28;20923;-74
2020/12/12 04:52:04;;;;;;;67.23;34.30;;;1.10;99.90;;;;;;5013632;28;20407;-74
2020/12/12 04:54:33;;;;;;;58.77;31.10;;;1.10;99.90;;;;;;5013428;28;20969;-74
2020/12/12 04:57:02;;;;;;;56.10;31.77;;;1.10;99.90;;;;;;5013092;28;20442;-74
2020/12/12 04:59:30;;;;;;;60.97;32.00;;;1.10;99.90;;;;;;5013007;28;20586;-74
2020/12/12 05:01:59;;;;;;;58.60;32.60;;;1.10;99.90;;;;;;5013203;28;20815;-74
2020/12/12 05:04:25;;;;;;;61.67;30.40;;;1.10;99.90;;;;;;5013227;28;20487;-75
2020/12/12 05:06:51;;;;;;;61.90;33.30;;;1.10;99.90;;;;;;5013095;28;20576;-74
2020/12/12 05:09:17;;;;;;;56.27;30.33;;;1.10;99.90;;;;;;5012834;28;20220;-74
2020/12/12 05:11:45;;;;;;;57.07;32.90;;;1.10;99.90;;;;;;5013064;28;20199;-75
2020/12/12 05:14:13;;;;;;;67.83;33.50;;;1.10;99.90;;;;;;5013173;28;20203;-75
2020/12/12 05:16:38;;;;;;;52.90;31.80;;;1.10;99.90;;;;;;5012084;28;20487;-73
2020/12/12 05:19:05;;;;;;;53.67;30.60;;;1.10;99.90;;;;;;5012737;28;20470;-74
2020/12/12 05:21:31;;;;;;;59.80;34.47;;;1.10;99.90;;;;;;5012899;28;20584;-74
2020/12/12 05:23:58;;;;;;;59.70;37.40;;;1.10;99.90;;;;;;5012754;28;20462;-74
2020/12/12 05:26:24;;;;;;;53.27;31.77;;;1.10;99.90;;;;;;5012685;28;20439;-74
2020/12/12 05:28:50;;;;;;;54.40;35.73;;;1.10;99.90;;;;;;5012541;28;20427;-74
2020/12/12 05:31:16;;;;;;;56.73;33.20;;;1.10;99.90;;;;;;5012663;28;20826;-74
2020/12/12 05:33:42;;;;;;;58.70;31.70;;;1.10;99.90;;;;;;5012662;28;20443;-74
2020/12/12 05:36:11;;;;;;;63.90;35.60;;;1.10;99.90;;;;;;5012559;28;20411;-74
2020/12/12 05:38:36;;;;;;;55.27;32.60;;;1.10;99.90;;;;;;5012372;28;20271;-74
2020/12/12 05:41:02;;;;;;;61.43;32.00;;;1.10;99.90;;;;;;5012465;28;20454;-74
2020/12/12 05:43:32;;;;;;;55.73;30.70;;;1.00;99.90;;;;;;5012475;28;20165;-74
2020/12/12 05:46:00;;;;;;;62.83;37.20;;;1.00;99.90;;;;;;5012557;28;20645;-74
2020/12/12 05:48:25;;;;;;;50.73;32.80;;;1.00;99.90;;;;;;5012188;28;20427;-74
2020/12/12 05:50:51;;;;;;;60.33;35.40;;;1.00;99.90;;;;;;5012402;28;20418;-75
2020/12/12 05:53:17;;;;;;;62.37;38.33;;;1.00;99.90;;;;;;5012375;28;20172;-75
2020/12/12 05:55:45;;;;;;;64.60;33.67;;;1.00;99.90;;;;;;5012509;28;20171;-75
2020/12/12 05:58:11;;;;;;;50.77;31.23;;;1.00;99.90;;;;;;5012005;28;20172;-75
2020/12/12 06:00:38;;;;;;;60.23;34.87;;;1.00;99.90;;;;;;5012238;28;20403;-75
2020/12/12 06:03:05;;;;;;;60.00;33.30;;;1.10;99.90;;;;;;5012240;28;20912;-75
2020/12/12 06:05:33;;;;;;;56.10;32.90;;;1.10;99.90;;;;;;5012351;28;20408;-74
2020/12/12 06:08:01;;;;;;;62.83;34.27;;;1.10;99.90;;;;;;5011920;28;20431;-74
2020/12/12 06:10:34;;;;;;;54.40;35.10;;;1.10;99.90;;;;;;5012357;28;20783;-74
2020/12/12 06:13:06;;;;;;;55.10;32.63;;;1.00;99.90;;;;;;5012222;28;20407;-75
2020/12/12 06:15:33;;;;;;;52.87;33.60;;;1.00;99.90;;;;;;5012051;28;20470;-74
2020/12/12 06:18:09;;;;;;;61.47;35.77;;;1.00;99.90;;;;;;5011967;28;20884;-74
2020/12/12 06:20:37;;;;;;;54.20;32.30;;;1.00;99.90;;;;;;5012036;28;20773;-73
2020/12/12 06:23:04;;;;;;;59.27;33.03;;;1.00;99.90;;;;;;5011981;28;20418;-74
2020/12/12 06:25:29;;;;;;;57.67;32.90;;;1.00;99.90;;;;;;5012041;28;20498;-74
2020/12/12 06:27:56;;;;;;;53.53;33.90;;;1.00;99.90;;;;;;5013656;28;20534;-74
2020/12/12 06:30:23;;;;;;;66.87;33.60;;;1.00;99.90;;;;;;5016021;28;20262;-74
2020/12/12 06:32:49;;;;;;;66.57;37.40;;;1.00;99.90;;;;;;5016593;28;20406;-75
2020/12/12 06:35:15;;;;;;;54.97;31.47;;;1.00;99.90;;;;;;5016673;28;20765;-74
2020/12/12 06:37:40;;;;;;;60.40;31.93;;;1.00;99.90;;;;;;5015896;28;20168;-75
2020/12/12 06:40:08;;;;;;;57.97;35.13;;;1.00;99.90;;;;;;5015749;28;20204;-75
2020/12/12 06:42:45;;;;;;;59.13;33.30;;;1.00;99.90;;;;;;5015832;28;20227;-76
2020/12/12 06:45:13;;;;;;;58.90;33.40;;;1.00;99.90;;;;;;5018364;28;20456;-74
2020/12/12 06:47:52;;;;;;;59.23;33.10;;;1.00;99.90;;;;;;5024429;28;20435;-73
2020/12/12 06:50:22;;;;;;;56.53;33.63;;;1.00;99.90;;;;;;5026076;28;20426;-74
2020/12/12 06:52:50;;;;;;;65.93;34.73;;;1.00;99.90;;;;;;5032440;28;20480;-73
2020/12/12 06:55:18;;;;;;;57.30;35.03;;;1.00;99.90;;;;;;5035273;28;20765;-74
2020/12/12 06:57:46;;;;;;;54.10;31.90;;;1.00;99.90;;;;;;5035159;28;20402;-74
2020/12/12 07:00:26;;;;;;;58.83;31.90;;;1.00;99.90;;;;;;5035090;28;20976;-74
2020/12/12 07:03:00;;;;;;;65.13;34.80;;;1.00;99.90;;;;;;5035084;28;20467;-75
2020/12/12 07:05:29;;;;;;;64.20;34.83;;;1.00;99.90;;;;;;5035193;28;20402;-74
2020/12/12 07:08:04;;;;;;;59.73;33.10;;;1.00;99.90;;;;;;5034869;28;20472;-74
2020/12/12 07:10:31;;;;;;;58.90;35.97;;;1.00;99.90;;;;;;5034969;28;20410;-74
2020/12/12 07:13:02;;;;;;;58.50;35.57;;;1.00;99.90;;;;;;5035060;28;20416;-74
2020/12/12 07:15:37;;;;;;;61.80;35.13;;;1.00;99.90;;;;;;5034873;28;20398;-74
2020/12/12 07:18:04;;;;;;;58.17;35.17;;;0.90;99.90;;;;;;5034747;28;20786;-74
2020/12/12 07:20:39;;;;;;;64.40;34.57;;;0.90;99.90;;;;;;5034621;28;20469;-74
2020/12/12 07:23:05;;;;;;;56.77;35.40;;;0.90;99.90;;;;;;5035019;28;20405;-74
2020/12/12 07:25:34;;;;;;;71.03;39.67;;;1.00;99.90;;;;;;5034665;28;20493;-73
2020/12/12 07:28:01;;;;;;;75.80;39.50;;;1.00;99.90;;;;;;5034597;28;20497;-73
2020/12/12 07:30:26;;;;;;;66.10;36.43;;;0.90;99.90;;;;;;5034570;28;20409;-73
2020/12/12 07:32:52;;;;;;;62.13;37.20;;;0.90;99.90;;;;;;5034702;28;20402;-75
2020/12/12 07:35:18;;;;;;;62.77;35.20;;;0.90;99.90;;;;;;5034429;28;20403;-74
2020/12/12 07:37:43;;;;;;;57.50;34.83;;;0.90;99.90;;;;;;5034507;28;20178;-73
2020/12/12 07:40:08;;;;;;;68.60;37.93;;;0.90;99.90;;;;;;5033486;28;20203;-73
2020/12/12 07:42:35;;;;;;;66.33;35.87;;;0.90;99.90;;;;;;5034516;28;20526;-73
2020/12/12 07:47:32;;;;;;;68.40;37.47;;;0.90;99.90;;;;;;5034559;28;20468;-74
2020/12/12 07:50:05;;;;;;;62.17;34.83;;;0.90;99.90;;;;;;5034425;28;20434;-75
2020/12/12 07:52:31;;;;;;;65.23;37.43;;;1.00;99.90;;;;;;5034287;28;20171;-75
2020/12/12 07:55:06;;;;;;;58.63;37.90;;;1.00;99.90;;;;;;5032907;28;20411;-74
2020/12/12 07:57:34;;;;;;;73.33;37.40;;;1.00;99.90;;;;;;5034458;28;20410;-75
2020/12/12 08:00:08;;;;;;;67.73;38.60;;;1.00;99.90;;;;;;5034116;28;20453;-74
2020/12/12 08:02:34;;;;;;;67.73;35.13;;;1.10;99.90;;;;;;5034036;28;20407;-75
2020/12/12 08:05:00;;;;;;;73.30;37.97;;;1.10;99.90;;;;;;5034005;28;20398;-75
2020/12/12 08:07:35;;;;;;;65.80;34.93;;;1.10;99.90;;;;;;5034191;28;20216;-74
2020/12/12 08:10:03;;;;;;;69.13;38.93;;;1.10;99.90;;;;;;5033920;28;20433;-74
2020/12/12 08:12:32;;;;;;;61.33;37.07;;;1.10;99.90;;;;;;5033912;28;20402;-75
2020/12/12 08:15:33;;;;;;;71.80;40.47;;;1.10;99.90;;;;;;5033779;28;20938;-76
2020/12/12 08:18:12;;;;;;;79.17;40.50;;;1.00;99.90;;;;;;5032440;28;20413;-74
2020/12/12 08:20:38;;;;;;;53.60;35.33;;;1.10;99.90;;;;;;5033752;28;20445;-74
2020/12/12 08:23:05;;;;;;;64.23;37.23;;;1.10;99.90;;;;;;5033589;28;20430;-76
2020/12/12 08:25:31;;;;;;;72.87;40.93;;;1.10;99.90;;;;;;5033552;28;20171;-74
2020/12/12 08:27:56;;;;;;;73.23;40.00;;;1.20;99.90;;;;;;5033565;28;20894;-74
2020/12/12 08:30:24;;;;;;;69.03;37.97;;;1.20;99.90;;;;;;5033714;28;20414;-74
2020/12/12 08:32:50;;;;;;;69.43;37.97;;;1.30;99.90;;;;;;5033483;28;20580;-74
2020/12/12 08:35:21;;;;;;;66.03;36.97;;;1.30;99.90;;;;;;5033470;28;20906;-75
2020/12/12 08:38:04;;;;;;;75.80;39.00;;;1.40;99.90;;;;;;5033275;28;20403;-75
2020/12/12 08:40:42;;;;;;;71.17;38.60;;;1.40;99.90;;;;;;5033457;28;20450;-75
2020/12/12 08:43:10;;;;;;;78.07;41.00;;;1.40;99.90;;;;;;5033449;28;20489;-74
2020/12/12 08:45:38;;;;;;;69.87;37.10;;;1.40;99.90;;;;;;5033297;28;20541;-73
2020/12/12 08:48:14;;;;;;;69.53;39.03;;;1.50;99.90;;;;;;5032990;28;20409;-73
2020/12/12 08:50:59;;;;;;;68.70;37.90;;;1.50;99.90;;;;;;5033243;28;20410;-73
2020/12/12 08:53:34;;;;;;;74.07;37.47;;;1.50;99.90;;;;;;5033277;28;20406;-74
2020/12/12 08:56:24;;;;;;;74.03;40.00;;;1.50;99.90;;;;;;5033566;28;20430;-74
2020/12/12 08:59:00;;;;;;;63.03;38.13;;;1.50;99.90;;;;;;5036393;28;20458;-75
2020/12/12 09:01:31;;;;;;;75.90;38.37;;;1.50;99.90;;;;;;5056331;28;20432;-75
2020/12/12 09:03:59;;;;;;;67.83;36.63;;;1.50;99.90;;;;;;5033316;28;20418;-75
2020/12/12 09:06:26;;;;;;;80.60;42.40;;;1.60;99.90;;;;;;5032855;28;20735;-75
2020/12/12 09:09:06;;;;;;;81.87;41.60;;;1.60;99.90;;;;;;5032562;28;20434;-75
2020/12/12 09:11:32;;;;;;;70.00;38.23;;;1.60;99.90;;;;;;5032693;28;20402;-75
2020/12/12 09:13:58;;;;;;;73.70;38.87;;;1.70;99.90;;;;;;5033059;28;20413;-75
2020/12/12 09:16:25;;;;;;;57.13;35.03;;;1.70;99.90;;;;;;5032772;28;20160;-75
2020/12/12 09:18:50;;;;;;;65.63;36.37;;;1.70;99.90;;;;;;5032460;28;20820;-75
2020/12/12 09:21:16;;;;;;;58.70;35.37;;;1.60;99.90;;;;;;5032611;28;20410;-75
2020/12/12 09:23:41;;;;;;;68.27;36.80;;;1.60;99.90;;;;;;5026487;28;20187;-76
2020/12/12 09:26:08;;;;;;;63.90;35.37;;;1.60;99.90;;;;;;5017688;28;20247;-75
2020/12/12 09:28:34;;;;;;;72.40;36.67;;;1.60;99.90;;;;;;5012781;28;20207;-75
2020/12/12 09:31:00;;;;;;;72.30;36.37;;;1.50;99.90;;;;;;5012527;28;20411;-74
2020/12/12 09:33:26;;;;;;;73.63;36.00;;;1.60;99.90;;;;;;5012608;28;20411;-75
2020/12/12 09:35:52;;;;;;;68.07;33.00;;;1.60;99.90;;;;;;5012588;28;20426;-75
2020/12/12 09:38:17;;;;;;;63.23;36.47;;;1.60;99.90;;;;;;5012237;28;20625;-75
2020/12/12 09:40:43;;;;;;;60.37;36.10;;;1.60;99.90;;;;;;5012558;28;20165;-75
2020/12/12 09:43:09;;;;;;;77.27;37.70;;;1.50;99.90;;;;;;5012697;28;20203;-75
2020/12/12 09:45:35;;;;;;;77.73;40.27;;;1.50;99.90;;;;;;5012599;28;20176;-75
2020/12/12 09:48:00;;;;;;;74.73;36.30;;;1.50;99.90;;;;;;5012196;28;20391;-75
2020/12/12 09:50:33;;;;;;;71.67;36.57;;;1.50;99.90;;;;;;5012473;28;20233;-74
2020/12/12 09:53:00;;;;;;;69.47;34.70;;;1.50;99.90;;;;;;5012339;28;20168;-74
2020/12/12 09:55:26;;;;;;;67.40;35.80;;;1.50;99.90;;;;;;5012496;28;20414;-75
2020/12/12 09:57:51;;;;;;;64.80;34.23;;;1.50;99.90;;;;;;5012229;28;21029;-75
2020/12/12 10:00:17;;;;;;;78.47;36.70;;;1.60;99.90;;;;;;5012294;28;20199;-75
2020/12/12 10:02:42;;;;;;;78.77;39.20;;;1.60;99.90;;;;;;5012058;28;20671;-75
2020/12/12 10:05:08;;;;;;;66.17;33.50;;;1.60;99.90;;;;;;5012515;28;20175;-72
2020/12/12 10:07:33;;;;;;;73.93;35.47;;;1.60;99.90;;;;;;5012252;28;20183;-76
2020/12/12 10:09:58;;;;;;;68.30;34.03;;;1.60;99.90;;;;;;5021952;28;20687;-74
2020/12/12 10:12:24;;;;;;;72.63;41.97;;;1.70;99.90;;;;;;5029958;28;20214;-74
2020/12/12 10:14:49;;;;;;;77.90;37.47;;;1.70;99.90;;;;;;5031738;28;20163;-74
2020/12/12 10:17:15;;;;;;;65.70;35.67;;;1.80;99.90;;;;;;5032816;28;20181;-74
2020/12/12 10:19:40;;;;;;;75.50;36.50;;;1.90;99.90;;;;;;5031915;28;20202;-76
2020/12/12 10:22:06;;;;;;;61.40;32.40;;;1.90;99.90;;;;;;5031773;28;20254;-74
2020/12/12 10:24:31;;;;;;;63.07;34.77;;;1.90;99.90;;;;;;5031722;28;20202;-74
2020/12/12 10:26:56;;;;;;;76.63;36.37;;;1.90;99.90;;;;;;5031565;28;20179;-75
2020/12/12 10:29:22;;;;;;;74.63;37.27;;;2.00;99.90;;;;;;5031622;28;20323;-74
2020/12/12 10:31:47;;;;;;;66.73;34.40;;;2.00;99.90;;;;;;5031756;28;20174;-76
2020/12/12 10:34:13;;;;;;;60.60;33.63;;;2.00;99.90;;;;;;5031742;28;20705;-75
2020/12/12 10:36:38;;;;;;;66.37;35.77;;;2.10;99.90;;;;;;5031434;28;20639;-75
2020/12/12 10:39:04;;;;;;;60.23;31.23;;;2.10;99.90;;;;;;5031449;28;20206;-75
2020/12/12 10:41:31;;;;;;;56.67;31.67;;;2.10;99.90;;;;;;5031768;28;20160;-76
2020/12/12 10:43:56;;;;;;;78.43;34.07;;;2.20;99.90;;;;;;5031583;28;20167;-76
2020/12/12 10:46:22;;;;;;;65.63;34.13;;;2.20;99.90;;;;;;5031744;28;20410;-76
2020/12/12 10:48:47;;;;;;;61.43;32.20;;;2.20;99.90;;;;;;5031719;28;20270;-75
2020/12/12 10:51:16;;;;;;;55.40;30.80;;;2.20;99.90;;;;;;5031546;28;20179;-75
2020/12/12 10:53:41;;;;;;;59.20;28.80;;;2.30;99.90;;;;;;5031497;28;20168;-75
2020/12/12 10:56:07;;;;;;;63.63;33.93;;;2.30;99.90;;;;;;5030328;28;20402;-74
2020/12/12 10:58:32;;;;;;;56.53;31.30;;;2.40;99.90;;;;;;5031787;28;20560;-75
2020/12/12 11:00:58;;;;;;;70.90;36.20;;;2.40;99.90;;;;;;5031906;28;20178;-75
2020/12/12 11:03:24;;;;;;;62.80;33.40;;;2.50;99.90;;;;;;5032253;28;20191;-78
2020/12/12 11:05:49;;;;;;;54.67;31.50;;;2.50;99.90;;;;;;5031403;28;20168;-78
2020/12/12 11:08:15;;;;;;;64.33;32.13;;;2.60;99.90;;;;;;5033136;28;20728;-69
2020/12/12 11:10:40;;;;;;;61.63;34.40;;;2.70;99.90;;;;;;5031137;28;20171;-74
2020/12/12 11:13:06;;;;;;;65.47;34.47;;;2.80;99.90;;;;;;5030952;28;20632;-74
2020/12/12 11:15:31;;;;;;;61.33;32.17;;;2.90;99.90;;;;;;5033590;28;20176;-74
2020/12/12 11:17:59;;;;;;;63.87;35.73;;;2.90;99.90;;;;;;5035031;28;20213;-74
2020/12/12 11:20:24;;;;;;;59.50;33.23;;;3.00;99.90;;;;;;5034710;28;20219;-74
2020/12/12 11:22:50;;;;;;;61.33;32.97;;;3.10;99.90;;;;;;5035155;28;20649;-74
2020/12/12 11:25:15;;;;;;;51.67;30.70;;;3.10;99.90;;;;;;5035177;28;20163;-74
2020/12/12 11:27:44;;;;;;;49.93;29.90;;;3.20;99.90;;;;;;5035123;28;20168;-74
2020/12/12 11:30:11;;;;;;;61.93;33.00;;;3.20;99.90;;;;;;5034831;28;20187;-74
2020/12/12 11:32:38;;;;;;;60.33;33.37;;;3.30;99.90;;;;;;5034801;28;20415;-74
2020/12/12 11:35:25;;;;;;;51.17;30.63;;;3.50;99.90;;;;;;5034661;28;20915;-74
2020/12/12 11:38:02;;;;;;;57.07;33.27;;;3.60;99.90;;;;;;5034799;28;20406;-74
2020/12/12 11:40:41;;;;;;;66.07;34.30;;;3.60;99.90;;;;;;5034588;28;20533;-74
2020/12/12 11:45:49;;;;;;;45.47;30.97;;;3.70;99.90;;;;;;5034613;28;20444;-75
2020/12/12 11:48:15;;;;;;;56.93;30.33;;;3.70;99.90;;;;;;5034293;28;20394;-74
2020/12/12 11:50:40;;;;;;;48.30;28.30;;;3.90;99.90;;;;;;5034259;28;20941;-74
2020/12/12 11:53:06;;;;;;;53.00;30.27;;;3.90;99.90;;;;;;5034347;28;20230;-74
2020/12/12 11:55:31;;;;;;;54.33;29.50;;;4.00;99.90;;;;;;5034178;28;20691;-74
2020/12/12 11:57:57;;;;;;;58.70;31.73;;;4.00;99.90;;;;;;5034316;28;20168;-74
2020/12/12 12:00:25;;;;;;;61.07;29.10;;;4.10;99.90;;;;;;5034094;28;20195;-75
2020/12/12 12:02:50;;;;;;;49.10;28.90;;;4.00;99.90;;;;;;5034707;28;20243;-75
2020/12/12 12:05:16;;;;;;;56.23;29.00;;;3.90;99.90;;;;;;5034509;28;20434;-75
2020/12/12 12:07:47;;;;;;;52.07;29.70;;;3.80;99.90;;;;;;5035056;28;20171;-75
2020/12/12 12:10:26;;;;;;;50.23;30.47;;;3.70;99.90;;;;;;5034719;28;20241;-75
2020/12/12 12:12:52;;;;;;;56.90;29.07;;;3.80;99.90;;;;;;5034664;28;20402;-75
2020/12/12 12:15:17;;;;;;;57.90;29.73;;;3.70;99.90;;;;;;5034475;28;20434;-75
2020/12/12 12:17:43;;;;;;;54.53;27.70;;;3.80;99.90;;;;;;5033686;28;20941;-76
2020/12/12 12:20:09;;;;;;;57.87;28.70;;;3.70;99.90;;;;;;5033827;28;20678;-75
2020/12/12 12:22:35;;;;;;;50.40;28.00;;;3.60;99.90;;;;;;5032503;28;20168;-75
2020/12/12 12:25:00;;;;;;;71.33;32.90;;;3.60;99.90;;;;;;5033157;28;20910;-73
2020/12/12 12:27:26;;;;;;;45.77;28.20;;;3.80;99.90;;;;;;5033575;28;20167;-74
2020/12/12 12:29:51;;;;;;;53.93;26.93;;;4.20;99.90;;;;;;5033628;28;20195;-74
2020/12/12 12:32:17;;;;;;;51.43;29.57;;;3.90;99.90;;;;;;5033608;28;20170;-74
2020/12/12 12:34:43;;;;;;;49.80;25.50;;;3.80;99.90;;;;;;5033518;28;20254;-74
2020/12/12 12:37:08;;;;;;;52.93;29.23;;;3.70;99.90;;;;;;5033354;28;20179;-74
2020/12/12 12:39:33;;;;;;;54.57;30.67;;;3.70;99.90;;;;;;5033207;28;20884;-74
2020/12/12 12:41:59;;;;;;;58.60;31.70;;;3.70;99.90;;;;;;5033504;28;20250;-74